createdAt,value
2023-10-27T00:01:35.609Z,98835.50
2023-10-27T00:04:03.069Z,98834.00
2023-10-27T00:06:34.319Z,98822.81
2023-10-27T00:09:02.680Z,98816.03
2023-10-27T00:11:30.258Z,98817.41
2023-10-27T00:13:57.635Z,98815.16
2023-10-27T00:16:25.081Z,98822.75
2023-10-27T00:18:52.653Z,98828.72
2023-10-27T00:21:20.220Z,98830.50
2023-10-27T00:23:47.589Z,98823.94
2023-10-27T00:26:15.233Z,98831.06
2023-10-27T00:28:42.733Z,98819.66
2023-10-27T00:31:10.193Z,98817.53
2023-10-27T00:33:37.624Z,98821.78
2023-10-27T00:36:06.212Z,98821.03
2023-10-27T00:38:33.623Z,98819.84
2023-10-27T00:41:01.009Z,98815.16
2023-10-27T00:43:28.467Z,98806.78
2023-10-27T00:45:56.405Z,98806.53
2023-10-27T00:48:24.012Z,98810.69
2023-10-27T00:50:51.605Z,98803.06
2023-10-27T00:53:22.668Z,98797.91
2023-10-27T00:55:51.605Z,98791.72
2023-10-27T00:58:21.255Z,98783.19
2023-10-27T01:00:48.858Z,98775.81
2023-10-27T01:03:16.264Z,98777.13
2023-10-27T01:05:43.763Z,98784.47
2023-10-27T01:08:11.204Z,98785.28
2023-10-27T01:10:38.690Z,98783.69
2023-10-27T01:13:06.241Z,98777.81
2023-10-27T01:15:33.590Z,98772.50
2023-10-27T01:18:01.064Z,98771.44
2023-10-27T01:20:28.605Z,98772.28
2023-10-27T01:22:56.082Z,98779.97
2023-10-27T01:25:24.308Z,98775.88
2023-10-27T01:27:51.795Z,98768.31
2023-10-27T01:30:19.322Z,98762.97
2023-10-27T01:32:47.094Z,98767.00
2023-10-27T01:35:14.915Z,98773.00
2023-10-27T01:37:42.637Z,98765.56
2023-10-27T01:40:11.752Z,98766.03
2023-10-27T01:42:39.557Z,98759.25
2023-10-27T01:45:08.209Z,98762.09
2023-10-27T01:47:35.841Z,98756.00
2023-10-27T01:50:03.316Z,98757.75
2023-10-27T01:52:30.756Z,98749.06
2023-10-27T01:54:59.351Z,98751.38
2023-10-27T01:57:27.094Z,98746.06
2023-10-27T01:59:54.567Z,98745.59
2023-10-27T02:02:22.287Z,98748.78
2023-10-27T02:04:52.805Z,98748.31
2023-10-27T02:07:25.370Z,98751.09
2023-10-27T02:09:53.614Z,98746.72
2023-10-27T02:12:20.966Z,98746.72
2023-10-27T02:14:48.411Z,98745.19
2023-10-27T02:17:15.812Z,98744.03
2023-10-27T02:19:43.624Z,98750.88
2023-10-27T02:22:11.363Z,98746.47
2023-10-27T02:24:45.809Z,98742.41
2023-10-27T02:27:13.355Z,98742.53
2023-10-27T02:29:40.720Z,98737.72
2023-10-27T02:32:08.336Z,98745.91
2023-10-27T02:34:35.764Z,98738.19
2023-10-27T02:37:03.350Z,98740.53
2023-10-27T02:39:30.719Z,98744.13
2023-10-27T02:41:58.241Z,98734.78
2023-10-27T02:44:25.606Z,98741.97
2023-10-27T02:46:53.377Z,98743.84
2023-10-27T02:49:20.832Z,98745.88
2023-10-27T02:51:48.294Z,98744.47
2023-10-27T02:54:15.732Z,98750.00
2023-10-27T02:56:43.138Z,98753.47
2023-10-27T02:59:10.836Z,98758.69
2023-10-27T03:01:38.685Z,98762.66
2023-10-27T03:04:06.563Z,98769.13
2023-10-27T03:06:34.092Z,98769.13
2023-10-27T03:09:01.568Z,98772.00
2023-10-27T03:11:28.959Z,98771.19
2023-10-27T03:13:56.598Z,98778.94
2023-10-27T03:16:24.056Z,98774.75
2023-10-27T03:18:52.117Z,98775.09
2023-10-27T03:21:19.667Z,98770.94
2023-10-27T03:23:47.096Z,98775.06
2023-10-27T03:26:14.479Z,98769.75
2023-10-27T03:28:43.607Z,98771.06
2023-10-27T03:31:14.731Z,98766.50
2023-10-27T03:33:42.234Z,98775.47
2023-10-27T03:36:10.309Z,98771.81
2023-10-27T03:38:37.742Z,98773.66
2023-10-27T03:41:05.364Z,98765.13
2023-10-27T03:43:36.016Z,98763.38
2023-10-27T03:46:04.061Z,98766.19
2023-10-27T03:48:31.579Z,98774.84
2023-10-27T03:50:59.314Z,98773.75
2023-10-27T03:53:26.668Z,98776.31
2023-10-27T03:55:55.102Z,98775.47
2023-10-27T03:58:27.503Z,98768.53
2023-10-27T04:01:00.974Z,98763.44
2023-10-27T04:03:30.240Z,98766.88
2023-10-27T04:05:57.756Z,98758.41
2023-10-27T04:08:25.330Z,98758.25
2023-10-27T04:10:53.372Z,98760.09
2023-10-27T04:13:21.431Z,98758.38
2023-10-27T04:15:48.803Z,98755.16
2023-10-27T04:18:16.258Z,98757.75
2023-10-27T04:20:43.723Z,98751.88
2023-10-27T04:23:11.158Z,98749.84
2023-10-27T04:25:40.566Z,98746.72
2023-10-27T04:28:08.177Z,98742.16
2023-10-27T04:30:37.777Z,98747.31
2023-10-27T04:33:11.522Z,98747.38
2023-10-27T04:35:39.276Z,98750.63
2023-10-27T04:38:06.596Z,98742.03
2023-10-27T04:40:35.785Z,98736.13
2023-10-27T04:43:06.774Z,98740.66
2023-10-27T04:45:34.271Z,98732.78
2023-10-27T04:48:01.625Z,98736.97
2023-10-27T04:50:29.421Z,98739.53
2023-10-27T04:52:56.917Z,98737.66
2023-10-27T04:55:25.214Z,98733.66
2023-10-27T04:57:53.013Z,98735.81
2023-10-27T05:00:20.574Z,98733.47
2023-10-27T05:02:48.329Z,98729.38
2023-10-27T05:05:15.858Z,98729.84
2023-10-27T05:07:43.660Z,98729.50
2023-10-27T05:10:11.328Z,98729.09
2023-10-27T05:12:39.268Z,98726.13
2023-10-27T05:15:07.752Z,98732.69
2023-10-27T05:17:37.217Z,98726.03
2023-10-27T05:20:09.937Z,98732.00
2023-10-27T05:22:37.310Z,98720.81
2023-10-27T05:25:10.784Z,98729.59
2023-10-27T05:27:38.558Z,98725.56
2023-10-27T05:30:07.438Z,98726.94
2023-10-27T05:32:34.947Z,98713.16
2023-10-27T05:35:02.660Z,98718.81
2023-10-27T05:37:30.185Z,98719.19
2023-10-27T05:39:57.731Z,98723.16
2023-10-27T05:42:25.244Z,98721.31
2023-10-27T05:44:52.784Z,98724.13
2023-10-27T05:47:21.165Z,98726.94
2023-10-27T05:49:48.836Z,98724.41
2023-10-27T05:52:17.606Z,98725.41
2023-10-27T05:54:47.226Z,98733.75
2023-10-27T05:57:16.230Z,98724.47
2023-10-27T05:59:44.182Z,98727.22
2023-10-27T06:02:15.635Z,98729.09
2023-10-27T06:04:44.508Z,98732.63
2023-10-27T06:07:16.964Z,98734.13
2023-10-27T06:09:46.172Z,98731.56
2023-10-27T06:12:13.944Z,98734.19
2023-10-27T06:14:46.006Z,98739.56
2023-10-27T06:17:14.800Z,98735.13
2023-10-27T06:19:42.368Z,98727.97
2023-10-27T06:22:10.962Z,98732.13
2023-10-27T06:24:38.476Z,98726.88
2023-10-27T06:27:07.024Z,98727.47
2023-10-27T06:29:35.519Z,98731.75
2023-10-27T06:32:04.849Z,98727.81
2023-10-27T06:34:32.542Z,98727.34
2023-10-27T06:37:01.620Z,98741.31
2023-10-27T06:39:29.877Z,98741.28
2023-10-27T06:41:57.297Z,98749.72
2023-10-27T06:44:24.735Z,98742.88
2023-10-27T06:46:52.344Z,98749.81
2023-10-27T06:49:27.013Z,98747.59
2023-10-27T06:51:54.892Z,98756.75
2023-10-27T06:54:22.680Z,98755.44
2023-10-27T06:56:51.924Z,98759.25
2023-10-27T06:59:20.041Z,98760.53
2023-10-27T07:01:47.516Z,98772.69
2023-10-27T07:04:15.185Z,98770.59
2023-10-27T07:06:45.763Z,98773.00
2023-10-27T07:09:13.190Z,98770.13
2023-10-27T07:11:40.625Z,98773.09
2023-10-27T07:14:08.251Z,98781.25
2023-10-27T07:16:36.019Z,98778.50
2023-10-27T07:19:05.323Z,98778.03
2023-10-27T07:21:32.850Z,98779.81
2023-10-27T07:24:00.342Z,98783.03
2023-10-27T07:26:28.087Z,98781.44
2023-10-27T07:28:55.622Z,98788.47
2023-10-27T07:31:23.183Z,98779.91
2023-10-27T07:33:50.647Z,98794.28
2023-10-27T07:36:18.425Z,98791.47
2023-10-27T07:38:46.067Z,98782.63
2023-10-27T07:41:13.937Z,98790.44
2023-10-27T07:43:41.381Z,98783.97
2023-10-27T07:46:09.355Z,98783.75
2023-10-27T07:48:36.986Z,98782.53
2023-10-27T07:51:05.104Z,98772.28
2023-10-27T07:53:32.796Z,98772.13
2023-10-27T07:56:01.076Z,98773.03
2023-10-27T07:58:28.853Z,98767.50
2023-10-27T08:00:57.209Z,98774.84
2023-10-27T08:03:26.392Z,98768.59
2023-10-27T08:05:54.260Z,98774.84
2023-10-27T08:08:24.844Z,98777.00
2023-10-27T08:10:52.648Z,98777.66
2023-10-27T08:13:22.567Z,98779.56
2023-10-27T08:15:50.828Z,98775.13
2023-10-27T08:18:18.539Z,98773.94
2023-10-27T08:20:46.626Z,98780.84
2023-10-27T08:23:14.097Z,98769.47
2023-10-27T08:25:41.839Z,98766.34
2023-10-27T08:28:09.703Z,98765.00
2023-10-27T08:30:37.391Z,98761.78
2023-10-27T08:33:04.929Z,98758.25
2023-10-27T08:35:33.888Z,98757.63
2023-10-27T08:38:01.739Z,98760.34
2023-10-27T08:40:32.686Z,98762.50
2023-10-27T08:43:00.671Z,98757.56
2023-10-27T08:45:29.447Z,98762.88
2023-10-27T08:48:02.354Z,98761.38
2023-10-27T08:50:36.229Z,98762.31
2023-10-27T08:53:05.935Z,98763.53
2023-10-27T08:55:34.089Z,98772.03
2023-10-27T08:58:02.388Z,98775.63
2023-10-27T09:00:29.895Z,98766.88
2023-10-27T09:03:15.081Z,98766.97
2023-10-27T09:05:43.554Z,98776.19
2023-10-27T09:08:12.332Z,98762.22
2023-10-27T09:10:48.161Z,98757.28
2023-10-27T09:13:25.917Z,98763.31
2023-10-27T09:15:53.930Z,98763.22
2023-10-27T09:18:37.197Z,98753.78
2023-10-27T09:21:05.715Z,98749.63
2023-10-27T09:23:46.805Z,98754.16
2023-10-27T09:26:14.329Z,98753.47
2023-10-27T09:28:42.189Z,98763.06
2023-10-27T09:31:09.958Z,98761.81
2023-10-27T09:33:37.898Z,98762.34
2023-10-27T09:36:06.403Z,98759.09
2023-10-27T09:38:33.786Z,98761.78
2023-10-27T09:41:05.422Z,98765.44
2023-10-27T09:43:39.828Z,98762.72
2023-10-27T09:46:09.039Z,98759.66
2023-10-27T09:48:38.618Z,98768.00
2023-10-27T09:51:17.986Z,98767.97
2023-10-27T09:53:49.203Z,98772.13
2023-10-27T09:56:19.234Z,98774.22
2023-10-27T09:58:47.085Z,98781.13
2023-10-27T10:01:16.914Z,98771.03
2023-10-27T10:03:45.075Z,98774.78
2023-10-27T10:06:31.172Z,98774.38
2023-10-27T10:09:20.448Z,98782.25
2023-10-27T10:11:55.880Z,98778.09
2023-10-27T10:14:38.245Z,98766.97
2023-10-27T10:17:07.142Z,98770.84
2023-10-27T10:19:52.021Z,98760.28
2023-10-27T10:22:41.670Z,98766.25
2023-10-27T10:25:22.689Z,98759.84
2023-10-27T10:28:08.646Z,98748.22
2023-10-27T10:30:48.189Z,98753.72
2023-10-27T10:33:18.461Z,98745.81
2023-10-27T10:35:48.433Z,98745.97
2023-10-27T10:38:22.773Z,98745.00
2023-10-27T10:41:02.784Z,98740.84
2023-10-27T10:43:35.844Z,98729.91
2023-10-27T10:46:06.597Z,98735.66
2023-10-27T10:48:46.351Z,98732.78
2023-10-27T10:51:20.414Z,98734.34
2023-10-27T10:53:55.895Z,98739.56
2023-10-27T10:56:25.793Z,98742.69
2023-10-27T10:58:55.580Z,98733.09
2023-10-27T11:01:24.915Z,98740.88
2023-10-27T11:03:55.723Z,98741.16
2023-10-27T11:06:30.630Z,98742.69
2023-10-27T11:08:58.057Z,98741.31
2023-10-27T11:11:38.246Z,98732.94
2023-10-27T11:14:09.571Z,98734.63
2023-10-27T11:16:38.304Z,98735.66
2023-10-27T11:19:17.966Z,98730.06
2023-10-27T11:21:45.556Z,98730.53
2023-10-27T11:24:14.138Z,98721.78
2023-10-27T11:26:43.646Z,98723.50
2023-10-27T11:29:11.935Z,98728.50
2023-10-27T11:31:44.075Z,98731.81
2023-10-27T11:34:14.426Z,98735.59
2023-10-27T11:37:08.727Z,98737.19
2023-10-27T11:39:37.013Z,98735.75
2023-10-27T11:42:04.985Z,98739.72
2023-10-27T11:44:41.980Z,98743.78
2023-10-27T11:47:09.428Z,98746.75
2023-10-27T11:49:36.875Z,98750.06
2023-10-27T11:52:06.475Z,98744.63
2023-10-27T11:54:33.983Z,98749.06
2023-10-27T11:57:01.647Z,98752.66
2023-10-27T11:59:31.366Z,98754.97
2023-10-27T12:01:58.783Z,98756.56
2023-10-27T12:04:26.549Z,98746.09
2023-10-27T12:06:55.232Z,98748.41
2023-10-27T12:09:23.540Z,98748.19
2023-10-27T12:11:51.700Z,98748.25
2023-10-27T12:14:19.130Z,98740.50
2023-10-27T12:16:46.565Z,98744.88
2023-10-27T12:19:17.204Z,98749.97
2023-10-27T12:21:44.765Z,98737.63
2023-10-27T12:24:12.732Z,98742.47
2023-10-27T12:26:40.201Z,98743.34
2023-10-27T12:29:09.666Z,98748.41
2023-10-27T12:31:42.778Z,98745.75
2023-10-27T12:34:10.477Z,98739.91
2023-10-27T12:36:37.901Z,98749.47
2023-10-27T12:39:05.535Z,98749.03
2023-10-27T12:41:33.228Z,98750.38
2023-10-27T12:44:01.406Z,98749.41
2023-10-27T12:46:29.229Z,98743.97
2023-10-27T12:48:56.734Z,98758.53
2023-10-27T12:51:24.449Z,98745.13
2023-10-27T12:53:52.641Z,98753.91
2023-10-27T12:56:20.098Z,98753.53
2023-10-27T12:58:47.805Z,98755.16
2023-10-27T13:01:15.380Z,98753.03
2023-10-27T13:03:42.839Z,98761.94
2023-10-27T13:06:17.554Z,98751.53
2023-10-27T13:08:45.054Z,98758.88
2023-10-27T13:11:14.508Z,98756.59
2023-10-27T13:13:42.083Z,98746.25
2023-10-27T13:16:16.588Z,98760.69
2023-10-27T13:18:44.472Z,98756.84
2023-10-27T13:21:16.491Z,98754.41
2023-10-27T13:23:44.510Z,98759.13
2023-10-27T13:26:12.368Z,98753.75
2023-10-27T13:28:39.925Z,98760.28
2023-10-27T13:31:07.843Z,98765.78
2023-10-27T13:33:35.729Z,98763.63
2023-10-27T13:36:10.728Z,98758.38
2023-10-27T13:38:39.774Z,98759.81
2023-10-27T13:41:24.975Z,98760.41
2023-10-27T13:43:52.569Z,98759.59
2023-10-27T13:46:20.139Z,98765.13
2023-10-27T13:48:48.380Z,98766.72
2023-10-27T13:51:15.894Z,98770.66
2023-10-27T13:53:43.849Z,98773.97
2023-10-27T13:56:14.418Z,98767.34
2023-10-27T13:58:45.709Z,98769.06
2023-10-27T14:01:13.264Z,98770.63
2023-10-27T14:03:41.078Z,98775.19
2023-10-27T14:06:13.266Z,98774.34
2023-10-27T14:08:42.840Z,98775.66
2023-10-27T14:11:11.029Z,98771.28
2023-10-27T14:13:38.600Z,98766.38
2023-10-27T14:16:13.441Z,98772.69
2023-10-27T14:18:41.564Z,98775.81
2023-10-27T14:21:09.426Z,98788.44
2023-10-27T14:23:37.285Z,98769.91
2023-10-27T14:26:05.290Z,98781.22
2023-10-27T14:28:34.437Z,98782.94
2023-10-27T14:31:04.210Z,98778.94
2023-10-27T14:33:31.631Z,98779.34
2023-10-27T14:36:03.860Z,98780.22
2023-10-27T14:38:31.775Z,98784.38
2023-10-27T14:41:00.599Z,98789.16
2023-10-27T14:43:28.136Z,98779.56
2023-10-27T14:46:03.858Z,98782.91
2023-10-27T14:48:32.454Z,98780.41
2023-10-27T14:51:11.810Z,98787.97
2023-10-27T14:53:39.281Z,98786.41
2023-10-27T14:56:11.699Z,98784.81
2023-10-27T14:58:40.616Z,98796.56
2023-10-27T15:01:13.052Z,98791.59
2023-10-27T15:03:40.755Z,98792.78
2023-10-27T15:06:10.541Z,98787.53
2023-10-27T15:08:39.866Z,98796.75
2023-10-27T15:11:10.908Z,98800.66
2023-10-27T15:13:38.758Z,98802.75
2023-10-27T15:16:14.956Z,98803.31
2023-10-27T15:18:43.472Z,98805.22
2023-10-27T15:21:13.495Z,98812.69
2023-10-27T15:23:41.290Z,98814.41
2023-10-27T15:26:09.788Z,98814.75
2023-10-27T15:28:37.249Z,98820.38
2023-10-27T15:31:10.237Z,98824.53
2023-10-27T15:33:39.835Z,98826.63
2023-10-27T15:36:12.398Z,98831.19
2023-10-27T15:38:44.318Z,98833.56
2023-10-27T15:41:40.057Z,98835.63
2023-10-27T15:44:08.867Z,98829.25
2023-10-27T15:46:38.009Z,98840.47
2023-10-27T15:49:05.467Z,98831.97
2023-10-27T15:51:32.881Z,98828.41
2023-10-27T15:54:01.476Z,98838.81
2023-10-27T15:56:29.043Z,98837.75
2023-10-27T15:59:03.794Z,98834.75
2023-10-27T16:01:31.474Z,98838.56
2023-10-27T16:03:59.020Z,98834.78
2023-10-27T16:06:26.545Z,98837.06
2023-10-27T16:08:55.235Z,98835.25
2023-10-27T16:11:24.580Z,98840.22
2023-10-27T16:13:52.753Z,98846.00
2023-10-27T16:16:20.237Z,98845.06
2023-10-27T16:18:49.229Z,98847.66
2023-10-27T16:21:17.534Z,98852.03
2023-10-27T16:23:45.170Z,98861.41
2023-10-27T16:26:12.823Z,98856.06
2023-10-27T16:28:40.540Z,98852.16
2023-10-27T16:31:08.206Z,98855.78
2023-10-27T16:33:35.899Z,98853.81
2023-10-27T16:36:08.351Z,98856.81
2023-10-27T16:38:35.853Z,98856.97
2023-10-27T16:41:06.620Z,98858.91
2023-10-27T16:43:45.930Z,98857.44
2023-10-27T16:46:14.388Z,98863.50
2023-10-27T16:48:42.379Z,98863.50
2023-10-27T16:51:16.626Z,98863.44
2023-10-27T16:53:44.880Z,98859.44
2023-10-27T16:56:14.343Z,98860.53
2023-10-27T16:58:41.992Z,98859.59
2023-10-27T17:01:09.586Z,98862.84
2023-10-27T17:03:37.797Z,98868.38
2023-10-27T17:06:06.777Z,98870.16
2023-10-27T17:08:34.616Z,98873.78
2023-10-27T17:11:03.959Z,98867.56
2023-10-27T17:13:31.406Z,98877.03
2023-10-27T17:16:10.136Z,98878.72
2023-10-27T17:18:43.292Z,98876.25
2023-10-27T17:21:22.060Z,98890.22
2023-10-27T17:24:00.197Z,98887.06
2023-10-27T17:26:27.566Z,98891.44
2023-10-27T17:28:54.986Z,98888.84
2023-10-27T17:31:26.968Z,98892.91
2023-10-27T17:33:59.500Z,98897.50
2023-10-27T17:36:29.748Z,98895.00
2023-10-27T17:38:57.823Z,98885.50
2023-10-27T17:41:25.570Z,98888.59
2023-10-27T17:43:53.036Z,98899.03
2023-10-27T17:46:20.874Z,98889.22
2023-10-27T17:48:49.975Z,98895.81
2023-10-27T17:51:17.757Z,98890.13
2023-10-27T17:53:45.413Z,98891.56
2023-10-27T17:56:13.636Z,98893.59
2023-10-27T17:58:41.152Z,98891.69
2023-10-27T18:01:11.797Z,98895.31
2023-10-27T18:03:41.347Z,98897.81
2023-10-27T18:06:13.575Z,98902.19
2023-10-27T18:08:41.167Z,98908.16
2023-10-27T18:11:09.828Z,98902.00
2023-10-27T18:13:37.685Z,98909.53
2023-10-27T18:16:09.580Z,98901.94
2023-10-27T18:18:37.749Z,98905.34
2023-10-27T18:21:08.118Z,98902.63
2023-10-27T18:23:36.530Z,98903.59
2023-10-27T18:26:18.669Z,98897.44
2023-10-27T18:28:49.280Z,98902.38
2023-10-27T18:31:20.137Z,98907.13
2023-10-27T18:33:47.623Z,98904.50
2023-10-27T18:36:19.328Z,98905.59
2023-10-27T18:38:49.740Z,98901.63
2023-10-27T18:41:21.689Z,98904.63
2023-10-27T18:43:53.456Z,98908.13
2023-10-27T18:46:21.097Z,98908.94
2023-10-27T18:48:49.196Z,98914.16
2023-10-27T18:51:17.024Z,98903.22
2023-10-27T18:53:46.188Z,98907.00
2023-10-27T18:56:14.864Z,98909.09
2023-10-27T18:58:47.058Z,98914.25
2023-10-27T19:01:15.996Z,98914.81
2023-10-27T19:03:50.682Z,98913.94
2023-10-27T19:06:19.624Z,98920.53
2023-10-27T19:08:47.208Z,98913.97
2023-10-27T19:11:16.105Z,98924.63
2023-10-27T19:13:44.532Z,98922.78
2023-10-27T19:16:15.692Z,98921.31
2023-10-27T19:18:46.497Z,98924.78
2023-10-27T19:21:18.420Z,98923.06
2023-10-27T19:23:52.114Z,98931.84
2023-10-27T19:26:25.449Z,98925.50
2023-10-27T19:28:55.664Z,98925.94
2023-10-27T19:31:26.901Z,98933.66
2023-10-27T19:33:56.869Z,98928.19
2023-10-27T19:36:31.278Z,98934.00
2023-10-27T19:38:58.958Z,98940.97
2023-10-27T19:41:29.385Z,98932.75
2023-10-27T19:43:57.025Z,98933.50
2023-10-27T19:46:25.008Z,98939.28
2023-10-27T19:48:53.602Z,98945.06
2023-10-27T19:51:20.977Z,98950.34
2023-10-27T19:53:48.619Z,98950.69
2023-10-27T19:56:17.953Z,98950.31
2023-10-27T19:58:48.753Z,98948.03
2023-10-27T20:01:22.954Z,98946.78
2023-10-27T20:03:51.840Z,98941.47
2023-10-27T20:06:22.131Z,98945.34
2023-10-27T20:08:51.504Z,98941.31
2023-10-27T20:11:19.037Z,98947.25
2023-10-27T20:13:47.773Z,98945.44
2023-10-27T20:16:20.957Z,98946.72
2023-10-27T20:18:49.677Z,98947.72
2023-10-27T20:21:17.351Z,98950.56
2023-10-27T20:23:46.665Z,98947.38
2023-10-27T20:26:15.797Z,98948.78
2023-10-27T20:28:43.315Z,98948.50
2023-10-27T20:31:13.967Z,98953.31
2023-10-27T20:33:41.530Z,98948.97
2023-10-27T20:36:09.371Z,98952.50
2023-10-27T20:38:38.222Z,98949.59
2023-10-27T20:41:06.242Z,98949.56
2023-10-27T20:43:33.898Z,98950.94
2023-10-27T20:46:04.713Z,98950.88
2023-10-27T20:48:32.596Z,98952.25
2023-10-27T20:51:04.585Z,98957.41
2023-10-27T20:53:32.158Z,98959.69
2023-10-27T20:56:00.812Z,98953.28
2023-10-27T20:58:28.548Z,98961.13
2023-10-27T21:00:56.279Z,98956.31
2023-10-27T21:03:23.874Z,98954.41
2023-10-27T21:05:51.449Z,98960.75
2023-10-27T21:08:18.930Z,98953.94
2023-10-27T21:10:46.566Z,98952.09
2023-10-27T21:13:15.398Z,98951.72
2023-10-27T21:15:42.843Z,98957.09
2023-10-27T21:18:11.075Z,98957.91
2023-10-27T21:20:40.446Z,98964.41
2023-10-27T21:23:11.049Z,98959.38
2023-10-27T21:25:38.593Z,98963.53
2023-10-27T21:28:06.959Z,98962.53
2023-10-27T21:30:34.517Z,98965.41
2023-10-27T21:33:01.951Z,98961.63
2023-10-27T21:35:29.276Z,98965.75
2023-10-27T21:37:58.426Z,98966.81
2023-10-27T21:40:25.920Z,98969.00
2023-10-27T21:42:53.346Z,98966.28
2023-10-27T21:45:20.768Z,98969.47
2023-10-27T21:47:48.319Z,98972.41
2023-10-27T21:50:16.466Z,98970.25
2023-10-27T21:52:43.948Z,98968.81
2023-10-27T21:55:11.496Z,98971.56
2023-10-27T21:57:38.838Z,98976.53
2023-10-27T22:00:29.859Z,98972.69
2023-10-27T22:02:57.541Z,98973.28
2023-10-27T22:05:25.768Z,98974.44
2023-10-27T22:07:54.231Z,98977.78
2023-10-27T22:10:21.801Z,98970.22
2023-10-27T22:12:49.556Z,98967.06
2023-10-27T22:15:17.606Z,98975.13
2023-10-27T22:17:47.831Z,98970.94
2023-10-27T22:20:16.158Z,98969.69
2023-10-27T22:22:43.804Z,98978.50
2023-10-27T22:25:11.230Z,98974.25
2023-10-27T22:27:38.661Z,98969.19
2023-10-27T22:30:08.225Z,98975.44
2023-10-27T22:32:36.251Z,98970.75
2023-10-27T22:35:04.386Z,98976.94
2023-10-27T22:37:32.155Z,98976.91
2023-10-27T22:39:59.583Z,98968.28
2023-10-27T22:42:26.926Z,98978.78
2023-10-27T22:44:54.389Z,98973.03
2023-10-27T22:47:22.603Z,98974.84
2023-10-27T22:49:50.576Z,98979.41
2023-10-27T22:52:18.025Z,98979.09
2023-10-27T22:54:45.325Z,98974.16
2023-10-27T22:57:12.672Z,98979.78
2023-10-27T22:59:40.614Z,98972.97
2023-10-27T23:02:09.189Z,98975.75
2023-10-27T23:04:36.969Z,98972.03
2023-10-27T23:07:05.579Z,98973.31
2023-10-27T23:09:33.078Z,98972.34
2023-10-27T23:12:00.495Z,98971.66
2023-10-27T23:14:28.104Z,98965.50
2023-10-27T23:16:55.772Z,98970.75
2023-10-27T23:19:24.850Z,98973.53
2023-10-27T23:21:52.801Z,98973.63
2023-10-27T23:24:20.452Z,98978.41
2023-10-27T23:26:47.955Z,98975.84
2023-10-27T23:29:15.683Z,98974.72
2023-10-27T23:31:43.448Z,98975.47
2023-10-27T23:34:10.777Z,98981.75
2023-10-27T23:36:39.026Z,98973.09
2023-10-27T23:39:07.129Z,98975.66
2023-10-27T23:41:34.613Z,98977.00
2023-10-27T23:44:02.036Z,98966.94
2023-10-27T23:46:29.505Z,98973.78
2023-10-27T23:48:57.229Z,98967.94
2023-10-27T23:51:24.554Z,98973.44
2023-10-27T23:53:51.891Z,98967.66
2023-10-27T23:56:19.250Z,98968.47
2023-10-27T23:58:46.778Z,98969.84
